sensor_id;sensor_type;location;lat;lon;timestamp;temperature;humidity
5344;DHT22;2694;48.954;8.928;2023-11-21T00:00:13;8.20;99.90
5344;DHT22;2694;48.954;8.928;2023-11-21T00:02:41;8.20;99.90
5344;DHT22;2694;48.954;8.928;2023-11-21T00:05:08;8.30;99.90
5344;DHT22;2694;48.954;8.928;2023-11-21T00:07:36;8.40;99.90
5344;DHT22;2694;48.954;8.928;2023-11-21T00:10:04;8.30;99.90
5344;DHT22;2694;48.954;8.928;2023-11-21T00:12:33;8.30;99.90
5344;DHT22;2694;48.954;8.928;2023-11-21T00:15:00;8.40;99.90
5344;DHT22;2694;48.954;8.928;2023-11-21T00:17:28;8.40;99.90
5344;DHT22;2694;48.954;8.928;2023-11-21T00:19:55;8.30;99.90
5344;DHT22;2694;48.954;8.928;2023-11-21T00:22:22;8.30;99.90
5344;DHT22;2694;48.954;8.928;2023-11-21T00:24:51;8.40;99.90
5344;DHT22;2694;48.954;8.928;2023-11-21T00:27:18;8.30;99.90
5344;DHT22;2694;48.954;8.928;2023-11-21T00:29:46;8.30;99.90
5344;DHT22;2694;48.954;8.928;2023-11-21T00:32:13;8.40;99.90
5344;DHT22;2694;48.954;8.928;2023-11-21T00:34:39;8.50;99.90
5344;DHT22;2694;48.954;8.928;2023-11-21T00:37:07;8.40;99.90
5344;DHT22;2694;48.954;8.928;2023-11-21T00:39:34;8.30;99.90
5344;DHT22;2694;48.954;8.928;2023-11-21T00:42:03;8.20;99.90
5344;DHT22;2694;48.954;8.928;2023-11-21T00:44:31;8.20;99.90
5344;DHT22;2694;48.954;8.928;2023-11-21T00:46:59;8.20;99.90
5344;DHT22;2694;48.954;8.928;2023-11-21T00:49:26;8.20;99.90
5344;DHT22;2694;48.954;8.928;2023-11-21T00:51:53;8.30;99.90
5344;DHT22;2694;48.954;8.928;2023-11-21T00:54:20;8.30;99.90
5344;DHT22;2694;48.954;8.928;2023-11-21T00:56:47;8.30;99.90
5344;DHT22;2694;48.954;8.928;2023-11-21T00:59:15;8.30;99.90
5344;DHT22;2694;48.954;8.928;2023-11-21T01:01:42;8.20;99.90
5344;DHT22;2694;48.954;8.928;2023-11-21T01:04:09;8.30;99.90
5344;DHT22;2694;48.954;8.928;2023-11-21T01:06:36;8.30;99.90
5344;DHT22;2694;48.954;8.928;2023-11-21T01:09:04;8.30;99.90
5344;DHT22;2694;48.954;8.928;2023-11-21T01:11:34;8.30;99.90
5344;DHT22;2694;48.954;8.928;2023-11-21T01:14:02;8.30;99.90
5344;DHT22;2694;48.954;8.928;2023-11-21T01:16:31;8.40;99.90
5344;DHT22;2694;48.954;8.928;2023-11-21T01:18:59;8.30;99.90
5344;DHT22;2694;48.954;8.928;2023-11-21T01:21:26;8.30;99.90
5344;DHT22;2694;48.954;8.928;2023-11-21T01:23:53;8.30;99.90
5344;DHT22;2694;48.954;8.928;2023-11-21T01:26:20;8.30;99.90
5344;DHT22;2694;48.954;8.928;2023-11-21T01:28:47;8.30;99.90
5344;DHT22;2694;48.954;8.928;2023-11-21T01:31:15;8.30;99.90
5344;DHT22;2694;48.954;8.928;2023-11-21T01:33:43;8.30;99.90
5344;DHT22;2694;48.954;8.928;2023-11-21T01:36:10;8.30;99.90
5344;DHT22;2694;48.954;8.928;2023-11-21T01:38:37;8.40;99.90
5344;DHT22;2694;48.954;8.928;2023-11-21T01:41:05;8.40;99.90
5344;DHT22;2694;48.954;8.928;2023-11-21T01:43:32;8.40;99.90
5344;DHT22;2694;48.954;8.928;2023-11-21T01:45:59;8.40;99.90
5344;DHT22;2694;48.954;8.928;2023-11-21T01:48:27;8.40;99.90
5344;DHT22;2694;48.954;8.928;2023-11-21T01:50:55;8.40;99.90
5344;DHT22;2694;48.954;8.928;2023-11-21T01:53:24;8.40;99.90
5344;DHT22;2694;48.954;8.928;2023-11-21T01:55:51;8.50;99.90
5344;DHT22;2694;48.954;8.928;2023-11-21T01:58:19;8.50;99.90
5344;DHT22;2694;48.954;8.928;2023-11-21T02:00:47;8.50;99.90
5344;DHT22;2694;48.954;8.928;2023-11-21T02:03:16;8.50;99.90
5344;DHT22;2694;48.954;8.928;2023-11-21T02:05:43;8.50;99.90
5344;DHT22;2694;48.954;8.928;2023-11-21T02:08:12;8.50;99.90
5344;DHT22;2694;48.954;8.928;2023-11-21T02:10:40;8.50;99.90
5344;DHT22;2694;48.954;8.928;2023-11-21T02:13:07;8.60;99.90
5344;DHT22;2694;48.954;8.928;2023-11-21T02:15:33;8.50;99.90
5344;DHT22;2694;48.954;8.928;2023-11-21T02:18:01;8.60;99.90
5344;DHT22;2694;48.954;8.928;2023-11-21T02:20:31;8.50;99.90
5344;DHT22;2694;48.954;8.928;2023-11-21T02:23:05;8.40;99.90
5344;DHT22;2694;48.954;8.928;2023-11-21T02:25:33;8.40;99.90
5344;DHT22;2694;48.954;8.928;2023-11-21T02:28:03;8.30;99.90
5344;DHT22;2694;48.954;8.928;2023-11-21T02:30:30;8.30;99.90
5344;DHT22;2694;48.954;8.928;2023-11-21T02:32:58;8.30;99.90
5344;DHT22;2694;48.954;8.928;2023-11-21T02:35:26;8.30;99.90
5344;DHT22;2694;48.954;8.928;2023-11-21T02:37:53;8.30;99.90
5344;DHT22;2694;48.954;8.928;2023-11-21T02:40:21;8.30;99.90
5344;DHT22;2694;48.954;8.928;2023-11-21T02:42:50;8.30;99.90
5344;DHT22;2694;48.954;8.928;2023-11-21T02:45:18;8.30;99.90
5344;DHT22;2694;48.954;8.928;2023-11-21T02:47:46;8.40;99.90
5344;DHT22;2694;48.954;8.928;2023-11-21T02:50:14;8.30;99.90
5344;DHT22;2694;48.954;8.928;2023-11-21T02:52:42;8.30;99.90
5344;DHT22;2694;48.954;8.928;2023-11-21T02:55:09;8.40;99.90
5344;DHT22;2694;48.954;8.928;2023-11-21T02:57:38;8.40;99.90
5344;DHT22;2694;48.954;8.928;2023-11-21T03:00:06;8.30;99.90
5344;DHT22;2694;48.954;8.928;2023-11-21T03:02:33;8.30;99.90
5344;DHT22;2694;48.954;8.928;2023-11-21T03:05:02;8.30;99.90
5344;DHT22;2694;48.954;8.928;2023-11-21T03:07:30;8.40;99.90
5344;DHT22;2694;48.954;8.928;2023-11-21T03:09:57;8.30;99.90
5344;DHT22;2694;48.954;8.928;2023-11-21T03:12:24;8.30;99.90
5344;DHT22;2694;48.954;8.928;2023-11-21T03:14:52;8.30;99.90
5344;DHT22;2694;48.954;8.928;2023-11-21T03:17:20;8.30;99.90
5344;DHT22;2694;48.954;8.928;2023-11-21T03:19:47;8.30;99.90
5344;DHT22;2694;48.954;8.928;2023-11-21T03:22:14;8.20;99.90
5344;DHT22;2694;48.954;8.928;2023-11-21T03:24:41;8.30;99.90
5344;DHT22;2694;48.954;8.928;2023-11-21T03:27:08;8.20;99.90
5344;DHT22;2694;48.954;8.928;2023-11-21T03:29:35;8.20;99.90
5344;DHT22;2694;48.954;8.928;2023-11-21T03:32:04;8.20;99.90
5344;DHT22;2694;48.954;8.928;2023-11-21T03:34:32;8.10;99.90
5344;DHT22;2694;48.954;8.928;2023-11-21T03:36:59;8.10;99.90
5344;DHT22;2694;48.954;8.928;2023-11-21T03:39:26;8.10;99.90
5344;DHT22;2694;48.954;8.928;2023-11-21T03:41:55;8.20;99.90
5344;DHT22;2694;48.954;8.928;2023-11-21T03:44:21;8.20;99.90
5344;DHT22;2694;48.954;8.928;2023-11-21T03:46:48;8.20;99.90
5344;DHT22;2694;48.954;8.928;2023-11-21T03:49:17;8.20;99.90
5344;DHT22;2694;48.954;8.928;2023-11-21T03:51:44;8.30;99.90
5344;DHT22;2694;48.954;8.928;2023-11-21T03:54:11;8.30;99.90
5344;DHT22;2694;48.954;8.928;2023-11-21T03:56:38;8.20;99.90
5344;DHT22;2694;48.954;8.928;2023-11-21T03:59:05;8.20;99.90
5344;DHT22;2694;48.954;8.928;2023-11-21T04:01:32;8.20;99.90
5344;DHT22;2694;48.954;8.928;2023-11-21T04:03:58;8.20;99.90
5344;DHT22;2694;48.954;8.928;2023-11-21T04:06:27;8.20;99.90
5344;DHT22;2694;48.954;8.928;2023-11-21T04:08:54;8.20;99.90
5344;DHT22;2694;48.954;8.928;2023-11-21T04:11:21;8.30;99.90
5344;DHT22;2694;48.954;8.928;2023-11-21T04:13:48;8.30;99.90
5344;DHT22;2694;48.954;8.928;2023-11-21T04:16:15;8.30;99.90
5344;DHT22;2694;48.954;8.928;2023-11-21T04:18:42;8.40;99.90
5344;DHT22;2694;48.954;8.928;2023-11-21T04:21:09;8.40;99.90
5344;DHT22;2694;48.954;8.928;2023-11-21T04:23:37;8.40;99.90
5344;DHT22;2694;48.954;8.928;2023-11-21T04:26:05;8.50;99.90
5344;DHT22;2694;48.954;8.928;2023-11-21T04:28:32;8.50;99.90
5344;DHT22;2694;48.954;8.928;2023-11-21T04:31:00;8.50;99.90
5344;DHT22;2694;48.954;8.928;2023-11-21T04:33:27;8.50;99.90
5344;DHT22;2694;48.954;8.928;2023-11-21T04:35:54;8.60;99.90
5344;DHT22;2694;48.954;8.928;2023-11-21T04:38:21;8.60;99.90
5344;DHT22;2694;48.954;8.928;2023-11-21T04:40:49;8.50;99.90
5344;DHT22;2694;48.954;8.928;2023-11-21T04:43:17;8.50;99.90
5344;DHT22;2694;48.954;8.928;2023-11-21T04:45:44;8.50;99.90
5344;DHT22;2694;48.954;8.928;2023-11-21T04:48:11;8.50;99.90
5344;DHT22;2694;48.954;8.928;2023-11-21T04:50:38;8.50;99.90
5344;DHT22;2694;48.954;8.928;2023-11-21T04:53:05;8.40;99.90
5344;DHT22;2694;48.954;8.928;2023-11-21T04:55:32;8.40;99.90
5344;DHT22;2694;48.954;8.928;2023-11-21T04:58:00;8.40;99.90
5344;DHT22;2694;48.954;8.928;2023-11-21T05:00:27;8.40;99.90
5344;DHT22;2694;48.954;8.928;2023-11-21T05:02:54;8.30;99.90
5344;DHT22;2694;48.954;8.928;2023-11-21T05:05:21;8.40;99.90
5344;DHT22;2694;48.954;8.928;2023-11-21T05:07:48;8.30;99.90
5344;DHT22;2694;48.954;8.928;2023-11-21T05:10:15;8.30;99.90
5344;DHT22;2694;48.954;8.928;2023-11-21T05:12:42;8.30;99.90
5344;DHT22;2694;48.954;8.928;2023-11-21T05:15:15;8.30;99.90
5344;DHT22;2694;48.954;8.928;2023-11-21T05:17:43;8.30;99.90
5344;DHT22;2694;48.954;8.928;2023-11-21T05:20:12;8.30;99.90
5344;DHT22;2694;48.954;8.928;2023-11-21T05:22:39;8.30;99.90
5344;DHT22;2694;48.954;8.928;2023-11-21T05:25:08;8.30;99.90
5344;DHT22;2694;48.954;8.928;2023-11-21T05:27:35;8.30;99.90
5344;DHT22;2694;48.954;8.928;2023-11-21T05:30:03;8.40;99.90
5344;DHT22;2694;48.954;8.928;2023-11-21T05:32:32;8.30;99.90
5344;DHT22;2694;48.954;8.928;2023-11-21T05:34:59;8.30;99.90
5344;DHT22;2694;48.954;8.928;2023-11-21T05:37:26;8.30;99.90
5344;DHT22;2694;48.954;8.928;2023-11-21T05:39:54;8.20;99.90
5344;DHT22;2694;48.954;8.928;2023-11-21T05:42:22;8.20;99.90
5344;DHT22;2694;48.954;8.928;2023-11-21T05:44:49;8.20;99.90
5344;DHT22;2694;48.954;8.928;2023-11-21T05:47:16;8.20;99.90
5344;DHT22;2694;48.954;8.928;2023-11-21T05:49:45;8.10;99.90
5344;DHT22;2694;48.954;8.928;2023-11-21T05:52:15;8.10;99.90
5344;DHT22;2694;48.954;8.928;2023-11-21T05:54:42;8.10;99.90
5344;DHT22;2694;48.954;8.928;2023-11-21T05:57:09;8.10;99.90
5344;DHT22;2694;48.954;8.928;2023-11-21T05:59:37;8.10;99.90
5344;DHT22;2694;48.954;8.928;2023-11-21T06:02:04;8.10;99.90
5344;DHT22;2694;48.954;8.928;2023-11-21T06:04:31;8.10;99.90
5344;DHT22;2694;48.954;8.928;2023-11-21T06:06:59;8.10;99.90
5344;DHT22;2694;48.954;8.928;2023-11-21T06:09:26;8.20;99.90
5344;DHT22;2694;48.954;8.928;2023-11-21T06:11:53;8.10;99.90
5344;DHT22;2694;48.954;8.928;2023-11-21T06:14:20;8.10;99.90
5344;DHT22;2694;48.954;8.928;2023-11-21T06:16:47;8.10;99.90
5344;DHT22;2694;48.954;8.928;2023-11-21T06:19:17;8.10;99.90
5344;DHT22;2694;48.954;8.928;2023-11-21T06:21:45;8.10;99.90
5344;DHT22;2694;48.954;8.928;2023-11-21T06:24:14;8.10;99.90
5344;DHT22;2694;48.954;8.928;2023-11-21T06:26:42;8.10;99.90
5344;DHT22;2694;48.954;8.928;2023-11-21T06:29:09;8.10;99.90
5344;DHT22;2694;48.954;8.928;2023-11-21T06:31:37;8.10;99.90
5344;DHT22;2694;48.954;8.928;2023-11-21T06:34:06;8.20;99.90
5344;DHT22;2694;48.954;8.928;2023-11-21T06:36:34;8.10;99.90
5344;DHT22;2694;48.954;8.928;2023-11-21T06:39:01;8.10;99.90
5344;DHT22;2694;48.954;8.928;2023-11-21T06:41:33;8.10;99.90
5344;DHT22;2694;48.954;8.928;2023-11-21T06:44:00;8.10;99.90
5344;DHT22;2694;48.954;8.928;2023-11-21T06:46:28;8.10;99.90
5344;DHT22;2694;48.954;8.928;2023-11-21T06:48:55;8.10;99.90
5344;DHT22;2694;48.954;8.928;2023-11-21T06:51:22;8.10;99.90
5344;DHT22;2694;48.954;8.928;2023-11-21T06:53:49;8.10;99.90
5344;DHT22;2694;48.954;8.928;2023-11-21T06:56:16;8.10;99.90
5344;DHT22;2694;48.954;8.928;2023-11-21T06:58:45;8.10;99.90
5344;DHT22;2694;48.954;8.928;2023-11-21T07:01:12;8.10;99.90
5344;DHT22;2694;48.954;8.928;2023-11-21T07:03:40;8.10;99.90
5344;DHT22;2694;48.954;8.928;2023-11-21T07:06:08;8.10;99.90
5344;DHT22;2694;48.954;8.928;2023-11-21T07:08:35;8.10;99.90
5344;DHT22;2694;48.954;8.928;2023-11-21T07:11:02;8.10;99.90
5344;DHT22;2694;48.954;8.928;2023-11-21T07:13:29;8.10;99.90
5344;DHT22;2694;48.954;8.928;2023-11-21T07:15:59;8.20;99.90
5344;DHT22;2694;48.954;8.928;2023-11-21T07:18:26;8.20;99.90
5344;DHT22;2694;48.954;8.928;2023-11-21T07:20:53;8.20;99.90
5344;DHT22;2694;48.954;8.928;2023-11-21T07:23:20;8.20;99.90
5344;DHT22;2694;48.954;8.928;2023-11-21T07:25:48;8.30;99.90
5344;DHT22;2694;48.954;8.928;2023-11-21T07:28:15;8.30;99.90
5344;DHT22;2694;48.954;8.928;2023-11-21T07:30:42;8.30;99.90
5344;DHT22;2694;48.954;8.928;2023-11-21T07:33:11;8.30;99.90
5344;DHT22;2694;48.954;8.928;2023-11-21T07:35:38;8.30;99.90
5344;DHT22;2694;48.954;8.928;2023-11-21T07:38:05;8.40;99.90
5344;DHT22;2694;48.954;8.928;2023-11-21T07:40:31;8.40;99.90
5344;DHT22;2694;48.954;8.928;2023-11-21T07:42:58;8.40;99.90
5344;DHT22;2694;48.954;8.928;2023-11-21T07:45:25;8.50;99.90
5344;DHT22;2694;48.954;8.928;2023-11-21T07:47:53;8.40;99.90
5344;DHT22;2694;48.954;8.928;2023-11-21T07:50:22;8.40;99.90
5344;DHT22;2694;48.954;8.928;2023-11-21T07:52:49;8.40;99.90
5344;DHT22;2694;48.954;8.928;2023-11-21T07:55:16;8.40;99.90
5344;DHT22;2694;48.954;8.928;2023-11-21T07:57:43;8.40;99.90
5344;DHT22;2694;48.954;8.928;2023-11-21T08:00:11;8.40;99.90
5344;DHT22;2694;48.954;8.928;2023-11-21T08:02:41;8.40;99.90
5344;DHT22;2694;48.954;8.928;2023-11-21T08:05:11;8.40;99.90
5344;DHT22;2694;48.954;8.928;2023-11-21T08:07:40;8.50;99.90
5344;DHT22;2694;48.954;8.928;2023-11-21T08:10:08;8.50;99.90
5344;DHT22;2694;48.954;8.928;2023-11-21T08:12:36;8.50;99.90
5344;DHT22;2694;48.954;8.928;2023-11-21T08:15:05;8.40;99.90
5344;DHT22;2694;48.954;8.928;2023-11-21T08:17:33;8.50;99.90
5344;DHT22;2694;48.954;8.928;2023-11-21T08:20:01;8.50;99.90
5344;DHT22;2694;48.954;8.928;2023-11-21T08:22:29;8.40;99.90
5344;DHT22;2694;48.954;8.928;2023-11-21T08:24:58;8.50;99.90
5344;DHT22;2694;48.954;8.928;2023-11-21T08:27:24;8.50;99.90
5344;DHT22;2694;48.954;8.928;2023-11-21T08:29:51;8.50;99.90
5344;DHT22;2694;48.954;8.928;2023-11-21T08:32:18;8.50;99.90
5344;DHT22;2694;48.954;8.928;2023-11-21T08:34:45;8.50;99.90
5344;DHT22;2694;48.954;8.928;2023-11-21T08:37:16;8.50;99.90
5344;DHT22;2694;48.954;8.928;2023-11-21T08:39:44;8.50;99.90
5344;DHT22;2694;48.954;8.928;2023-11-21T08:42:12;8.50;99.90
5344;DHT22;2694;48.954;8.928;2023-11-21T08:44:39;8.50;99.90
5344;DHT22;2694;48.954;8.928;2023-11-21T08:47:06;8.50;99.90
5344;DHT22;2694;48.954;8.928;2023-11-21T08:49:33;8.50;99.90
5344;DHT22;2694;48.954;8.928;2023-11-21T08:52:00;8.50;99.90
5344;DHT22;2694;48.954;8.928;2023-11-21T08:54:27;8.50;99.90
5344;DHT22;2694;48.954;8.928;2023-11-21T08:56:54;8.60;99.90
5344;DHT22;2694;48.954;8.928;2023-11-21T08:59:25;8.70;99.90
5344;DHT22;2694;48.954;8.928;2023-11-21T09:01:51;8.70;99.90
5344;DHT22;2694;48.954;8.928;2023-11-21T09:04:18;8.60;99.90
5344;DHT22;2694;48.954;8.928;2023-11-21T09:06:44;8.60;99.90
5344;DHT22;2694;48.954;8.928;2023-11-21T09:09:11;8.60;99.90
5344;DHT22;2694;48.954;8.928;2023-11-21T09:11:39;8.60;99.90
5344;DHT22;2694;48.954;8.928;2023-11-21T09:14:06;8.70;99.90
5344;DHT22;2694;48.954;8.928;2023-11-21T09:16:35;8.70;99.90
5344;DHT22;2694;48.954;8.928;2023-11-21T09:19:02;8.90;99.90
5344;DHT22;2694;48.954;8.928;2023-11-21T09:21:31;9.10;99.90
5344;DHT22;2694;48.954;8.928;2023-11-21T09:23:58;9.20;99.90
5344;DHT22;2694;48.954;8.928;2023-11-21T09:26:25;9.40;99.90
5344;DHT22;2694;48.954;8.928;2023-11-21T09:28:52;9.60;99.90
5344;DHT22;2694;48.954;8.928;2023-11-21T09:31:19;9.60;99.90
5344;DHT22;2694;48.954;8.928;2023-11-21T09:33:49;9.70;99.90
5344;DHT22;2694;48.954;8.928;2023-11-21T09:36:16;9.80;99.90
5344;DHT22;2694;48.954;8.928;2023-11-21T09:38:43;10.00;99.90
5344;DHT22;2694;48.954;8.928;2023-11-21T09:41:15;9.80;99.90
5344;DHT22;2694;48.954;8.928;2023-11-21T09:43:46;9.80;99.90
5344;DHT22;2694;48.954;8.928;2023-11-21T09:46:14;9.80;99.90
5344;DHT22;2694;48.954;8.928;2023-11-21T09:48:50;9.80;99.90
5344;DHT22;2694;48.954;8.928;2023-11-21T09:51:19;9.80;99.90
5344;DHT22;2694;48.954;8.928;2023-11-21T09:53:50;9.90;99.90
5344;DHT22;2694;48.954;8.928;2023-11-21T09:56:18;10.00;99.90
5344;DHT22;2694;48.954;8.928;2023-11-21T09:58:51;10.10;99.90
5344;DHT22;2694;48.954;8.928;2023-11-21T10:01:21;10.20;99.90
5344;DHT22;2694;48.954;8.928;2023-11-21T10:03:50;10.30;99.90
5344;DHT22;2694;48.954;8.928;2023-11-21T10:06:18;10.40;99.90
5344;DHT22;2694;48.954;8.928;2023-11-21T10:08:46;10.40;99.90
5344;DHT22;2694;48.954;8.928;2023-11-21T10:11:14;10.50;99.90
5344;DHT22;2694;48.954;8.928;2023-11-21T10:13:43;10.60;99.90
5344;DHT22;2694;48.954;8.928;2023-11-21T10:16:15;10.60;99.90
5344;DHT22;2694;48.954;8.928;2023-11-21T10:18:43;10.70;99.90
5344;DHT22;2694;48.954;8.928;2023-11-21T10:21:13;10.80;99.90
5344;DHT22;2694;48.954;8.928;2023-11-21T10:23:40;10.70;99.90
5344;DHT22;2694;48.954;8.928;2023-11-21T10:26:11;10.60;99.90
5344;DHT22;2694;48.954;8.928;2023-11-21T10:28:42;10.50;99.90
5344;DHT22;2694;48.954;8.928;2023-11-21T10:31:21;10.30;99.90
5344;DHT22;2694;48.954;8.928;2023-11-21T10:33:49;10.30;99.90
5344;DHT22;2694;48.954;8.928;2023-11-21T10:36:27;10.20;99.90
5344;DHT22;2694;48.954;8.928;2023-11-21T10:38:54;10.10;99.90
5344;DHT22;2694;48.954;8.928;2023-11-21T10:41:22;10.00;99.90
5344;DHT22;2694;48.954;8.928;2023-11-21T10:43:53;9.90;99.90
5344;DHT22;2694;48.954;8.928;2023-11-21T10:46:21;9.80;99.90
5344;DHT22;2694;48.954;8.928;2023-11-21T10:48:53;9.80;99.90
5344;DHT22;2694;48.954;8.928;2023-11-21T10:51:21;9.80;99.90
5344;DHT22;2694;48.954;8.928;2023-11-21T10:53:51;9.90;99.90
5344;DHT22;2694;48.954;8.928;2023-11-21T10:56:18;9.90;99.90
5344;DHT22;2694;48.954;8.928;2023-11-21T10:58:49;10.00;99.90
5344;DHT22;2694;48.954;8.928;2023-11-21T11:01:18;10.10;99.90
5344;DHT22;2694;48.954;8.928;2023-11-21T11:03:47;10.10;99.90
5344;DHT22;2694;48.954;8.928;2023-11-21T11:06:15;10.20;99.90
5344;DHT22;2694;48.954;8.928;2023-11-21T11:08:44;10.30;99.90
5344;DHT22;2694;48.954;8.928;2023-11-21T11:11:12;10.40;99.90
5344;DHT22;2694;48.954;8.928;2023-11-21T11:13:43;10.60;99.90
5344;DHT22;2694;48.954;8.928;2023-11-21T11:16:12;10.60;99.90
5344;DHT22;2694;48.954;8.928;2023-11-21T11:18:42;10.60;99.90
5344;DHT22;2694;48.954;8.928;2023-11-21T11:21:24;10.60;99.90
5344;DHT22;2694;48.954;8.928;2023-11-21T11:24:05;10.60;99.90
5344;DHT22;2694;48.954;8.928;2023-11-21T11:26:45;10.70;99.90
5344;DHT22;2694;48.954;8.928;2023-11-21T11:29:19;10.60;99.90
5344;DHT22;2694;48.954;8.928;2023-11-21T11:31:57;10.40;99.90
5344;DHT22;2694;48.954;8.928;2023-11-21T11:34:31;10.30;99.90
5344;DHT22;2694;48.954;8.928;2023-11-21T11:37:01;10.20;99.90
5344;DHT22;2694;48.954;8.928;2023-11-21T11:39:30;10.20;99.90
5344;DHT22;2694;48.954;8.928;2023-11-21T11:42:02;10.20;99.90
5344;DHT22;2694;48.954;8.928;2023-11-21T11:44:48;10.20;99.90
5344;DHT22;2694;48.954;8.928;2023-11-21T11:47:21;10.10;99.90
5344;DHT22;2694;48.954;8.928;2023-11-21T11:50:01;10.10;99.90
5344;DHT22;2694;48.954;8.928;2023-11-21T11:52:42;10.20;99.90
5344;DHT22;2694;48.954;8.928;2023-11-21T11:55:11;10.30;99.90
5344;DHT22;2694;48.954;8.928;2023-11-21T11:57:41;10.40;99.90
5344;DHT22;2694;48.954;8.928;2023-11-21T12:00:13;10.40;99.90
5344;DHT22;2694;48.954;8.928;2023-11-21T12:02:45;10.40;99.90
5344;DHT22;2694;48.954;8.928;2023-11-21T12:05:14;10.50;99.90
5344;DHT22;2694;48.954;8.928;2023-11-21T12:07:46;10.40;99.90
5344;DHT22;2694;48.954;8.928;2023-11-21T12:10:14;10.50;99.90
5344;DHT22;2694;48.954;8.928;2023-11-21T12:12:46;10.50;99.90
5344;DHT22;2694;48.954;8.928;2023-11-21T12:15:13;10.50;99.90
5344;DHT22;2694;48.954;8.928;2023-11-21T12:17:41;10.50;99.90
5344;DHT22;2694;48.954;8.928;2023-11-21T12:20:10;10.30;99.90
5344;DHT22;2694;48.954;8.928;2023-11-21T12:22:44;10.20;99.90
5344;DHT22;2694;48.954;8.928;2023-11-21T12:25:14;10.10;99.90
5344;DHT22;2694;48.954;8.928;2023-11-21T12:27:46;10.10;99.90
5344;DHT22;2694;48.954;8.928;2023-11-21T12:30:15;10.00;99.90
5344;DHT22;2694;48.954;8.928;2023-11-21T12:32:43;9.90;99.90
5344;DHT22;2694;48.954;8.928;2023-11-21T12:35:12;9.80;99.90
5344;DHT22;2694;48.954;8.928;2023-11-21T12:37:40;9.80;99.90
5344;DHT22;2694;48.954;8.928;2023-11-21T12:40:09;9.70;99.90
5344;DHT22;2694;48.954;8.928;2023-11-21T12:42:39;9.60;99.90
5344;DHT22;2694;48.954;8.928;2023-11-21T12:45:15;9.60;99.90
5344;DHT22;2694;48.954;8.928;2023-11-21T12:47:46;9.60;99.90
5344;DHT22;2694;48.954;8.928;2023-11-21T12:50:13;9.70;99.90
5344;DHT22;2694;48.954;8.928;2023-11-21T12:52:45;9.80;99.90
5344;DHT22;2694;48.954;8.928;2023-11-21T12:55:15;9.80;99.90
5344;DHT22;2694;48.954;8.928;2023-11-21T12:57:45;9.80;99.90
5344;DHT22;2694;48.954;8.928;2023-11-21T13:00:15;9.80;99.90
5344;DHT22;2694;48.954;8.928;2023-11-21T13:02:57;9.90;99.90
5344;DHT22;2694;48.954;8.928;2023-11-21T13:05:29;10.00;99.90
5344;DHT22;2694;48.954;8.928;2023-11-21T13:07:58;10.00;99.90
5344;DHT22;2694;48.954;8.928;2023-11-21T13:10:29;10.00;99.90
5344;DHT22;2694;48.954;8.928;2023-11-21T13:12:57;10.00;99.90
5344;DHT22;2694;48.954;8.928;2023-11-21T13:15:27;10.00;99.90
5344;DHT22;2694;48.954;8.928;2023-11-21T13:17:57;10.00;99.90
5344;DHT22;2694;48.954;8.928;2023-11-21T13:20:24;10.00;99.90
5344;DHT22;2694;48.954;8.928;2023-11-21T13:22:53;10.10;99.90
5344;DHT22;2694;48.954;8.928;2023-11-21T13:25:23;10.00;99.90
5344;DHT22;2694;48.954;8.928;2023-11-21T13:27:53;10.00;99.90
5344;DHT22;2694;48.954;8.928;2023-11-21T13:30:20;10.00;99.90
5344;DHT22;2694;48.954;8.928;2023-11-21T13:32:53;10.10;99.90
5344;DHT22;2694;48.954;8.928;2023-11-21T13:35:23;10.30;99.90
5344;DHT22;2694;48.954;8.928;2023-11-21T13:37:57;10.30;99.90
5344;DHT22;2694;48.954;8.928;2023-11-21T13:40:26;10.20;99.90
5344;DHT22;2694;48.954;8.928;2023-11-21T13:42:53;10.20;99.90
5344;DHT22;2694;48.954;8.928;2023-11-21T13:45:23;10.00;99.90
5344;DHT22;2694;48.954;8.928;2023-11-21T13:47:53;9.90;99.90
5344;DHT22;2694;48.954;8.928;2023-11-21T13:50:23;9.90;99.90
5344;DHT22;2694;48.954;8.928;2023-11-21T13:52:54;9.80;99.90
5344;DHT22;2694;48.954;8.928;2023-11-21T13:55:21;9.80;99.90
5344;DHT22;2694;48.954;8.928;2023-11-21T13:57:51;9.60;99.90
5344;DHT22;2694;48.954;8.928;2023-11-21T14:00:18;9.60;99.90
5344;DHT22;2694;48.954;8.928;2023-11-21T14:03:11;9.60;99.90
5344;DHT22;2694;48.954;8.928;2023-11-21T14:05:46;9.60;99.90
5344;DHT22;2694;48.954;8.928;2023-11-21T14:08:18;9.50;99.90
5344;DHT22;2694;48.954;8.928;2023-11-21T14:10:46;9.50;99.90
5344;DHT22;2694;48.954;8.928;2023-11-21T14:13:17;9.50;99.90
5344;DHT22;2694;48.954;8.928;2023-11-21T14:15:45;9.40;99.90
5344;DHT22;2694;48.954;8.928;2023-11-21T14:18:17;9.40;99.90
5344;DHT22;2694;48.954;8.928;2023-11-21T14:20:53;9.30;99.90
5344;DHT22;2694;48.954;8.928;2023-11-21T14:23:22;9.20;99.90
5344;DHT22;2694;48.954;8.928;2023-11-21T14:25:50;9.20;99.90
5344;DHT22;2694;48.954;8.928;2023-11-21T14:28:17;9.10;99.90
5344;DHT22;2694;48.954;8.928;2023-11-21T14:30:45;9.10;99.90
5344;DHT22;2694;48.954;8.928;2023-11-21T14:33:12;9.10;99.90
5344;DHT22;2694;48.954;8.928;2023-11-21T14:35:40;9.10;99.90
5344;DHT22;2694;48.954;8.928;2023-11-21T14:38:07;9.10;99.90
5344;DHT22;2694;48.954;8.928;2023-11-21T14:40:35;9.00;99.90
5344;DHT22;2694;48.954;8.928;2023-11-21T14:43:02;9.10;99.90
5344;DHT22;2694;48.954;8.928;2023-11-21T14:45:31;9.00;99.90
5344;DHT22;2694;48.954;8.928;2023-11-21T14:47:58;9.00;99.90
5344;DHT22;2694;48.954;8.928;2023-11-21T14:50:32;9.00;99.90
5344;DHT22;2694;48.954;8.928;2023-11-21T14:53:33;9.00;99.90
5344;DHT22;2694;48.954;8.928;2023-11-21T14:56:17;9.00;99.90
5344;DHT22;2694;48.954;8.928;2023-11-21T14:58:52;9.00;99.90
5344;DHT22;2694;48.954;8.928;2023-11-21T15:01:20;9.00;99.90
5344;DHT22;2694;48.954;8.928;2023-11-21T15:03:59;9.00;99.90
5344;DHT22;2694;48.954;8.928;2023-11-21T15:06:26;9.10;99.90
5344;DHT22;2694;48.954;8.928;2023-11-21T15:08:57;9.10;99.90
5344;DHT22;2694;48.954;8.928;2023-11-21T15:11:38;9.10;99.90
5344;DHT22;2694;48.954;8.928;2023-11-21T15:14:05;9.00;99.90
5344;DHT22;2694;48.954;8.928;2023-11-21T15:16:33;9.00;99.90
5344;DHT22;2694;48.954;8.928;2023-11-21T15:19:04;9.00;99.90
5344;DHT22;2694;48.954;8.928;2023-11-21T15:21:32;9.00;99.90
5344;DHT22;2694;48.954;8.928;2023-11-21T15:24:00;9.00;99.90
5344;DHT22;2694;48.954;8.928;2023-11-21T15:26:28;9.00;99.90
5344;DHT22;2694;48.954;8.928;2023-11-21T15:28:55;8.90;99.90
5344;DHT22;2694;48.954;8.928;2023-11-21T15:31:22;8.80;99.90
5344;DHT22;2694;48.954;8.928;2023-11-21T15:33:50;8.70;99.90
5344;DHT22;2694;48.954;8.928;2023-11-21T15:36:18;8.70;99.90
5344;DHT22;2694;48.954;8.928;2023-11-21T15:38:45;8.60;99.90
5344;DHT22;2694;48.954;8.928;2023-11-21T15:41:14;8.50;99.90
5344;DHT22;2694;48.954;8.928;2023-11-21T15:43:41;8.50;99.90
5344;DHT22;2694;48.954;8.928;2023-11-21T15:46:08;8.40;99.90
5344;DHT22;2694;48.954;8.928;2023-11-21T15:48:35;8.30;99.90
5344;DHT22;2694;48.954;8.928;2023-11-21T15:51:04;8.20;99.90
5344;DHT22;2694;48.954;8.928;2023-11-21T15:53:34;8.10;99.90
5344;DHT22;2694;48.954;8.928;2023-11-21T15:56:04;8.10;99.90
5344;DHT22;2694;48.954;8.928;2023-11-21T15:58:38;8.00;99.90
5344;DHT22;2694;48.954;8.928;2023-11-21T16:01:08;7.90;99.90
5344;DHT22;2694;48.954;8.928;2023-11-21T16:03:35;7.80;99.90
5344;DHT22;2694;48.954;8.928;2023-11-21T16:06:02;7.70;99.90
5344;DHT22;2694;48.954;8.928;2023-11-21T16:08:30;7.70;99.90
5344;DHT22;2694;48.954;8.928;2023-11-21T16:10:57;7.70;99.90
5344;DHT22;2694;48.954;8.928;2023-11-21T16:13:25;7.60;99.90
5344;DHT22;2694;48.954;8.928;2023-11-21T16:15:53;7.60;99.90
5344;DHT22;2694;48.954;8.928;2023-11-21T16:18:21;6.70;99.90
5344;DHT22;2694;48.954;8.928;2023-11-21T16:20:49;7.60;99.90
5344;DHT22;2694;48.954;8.928;2023-11-21T16:23:16;7.50;99.90